sensor_id;sensor_type;location;lat;lon;timestamp;pressure;altitude;pressure_sealevel;temperature;humidity
63500;BME280;49654;51.142;14.924;2023-06-14T00:00:47;99190.06;;;10.87;78.79
63500;BME280;49654;51.142;14.924;2023-06-14T00:03:14;99197.78;;;10.95;79.34
63500;BME280;49654;51.142;14.924;2023-06-14T00:05:43;99091.91;;;10.22;79.55
63500;BME280;49654;51.142;14.924;2023-06-14T00:08:12;99197.19;;;10.93;80.00
63500;BME280;49654;51.142;14.924;2023-06-14T00:10:40;99199.31;;;10.90;80.61
63500;BME280;49654;51.142;14.924;2023-06-14T00:13:08;99193.66;;;10.86;81.02
63500;BME280;49654;51.142;14.924;2023-06-14T00:15:35;99203.88;;;10.88;80.87
63500;BME280;49654;51.142;14.924;2023-06-14T00:18:02;99203.59;;;10.83;81.23
63500;BME280;49654;51.142;14.924;2023-06-14T00:20:31;99195.06;;;10.74;81.11
63500;BME280;49654;51.142;14.924;2023-06-14T00:22:59;99202.09;;;10.65;81.56
63500;BME280;49654;51.142;14.924;2023-06-14T00:25:26;99067.66;;;9.84;80.34
63500;BME280;49654;51.142;14.924;2023-06-14T00:27:55;99144.88;;;10.36;79.79
63500;BME280;49654;51.142;14.924;2023-06-14T00:30:23;99200.72;;;10.77;79.64
63500;BME280;49654;51.142;14.924;2023-06-14T00:32:49;99193.44;;;10.73;79.47
63500;BME280;49654;51.142;14.924;2023-06-14T00:35:17;99183.81;;;10.59;79.79
63500;BME280;49654;51.142;14.924;2023-06-14T00:37:44;99202.75;;;10.67;80.05
63500;BME280;49654;51.142;14.924;2023-06-14T00:40:11;99206.94;;;10.68;80.11
63500;BME280;49654;51.142;14.924;2023-06-14T00:42:37;99206.34;;;10.66;79.43
63500;BME280;49654;51.142;14.924;2023-06-14T00:45:07;99204.22;;;10.62;77.45
63500;BME280;49654;51.142;14.924;2023-06-14T00:47:35;99208.06;;;10.51;77.98
63500;BME280;49654;51.142;14.924;2023-06-14T00:50:06;99210.97;;;10.48;78.21
63500;BME280;49654;51.142;14.924;2023-06-14T00:52:34;99205.84;;;10.40;78.08
63500;BME280;49654;51.142;14.924;2023-06-14T00:55:02;99208.63;;;10.38;78.37
63500;BME280;49654;51.142;14.924;2023-06-14T00:57:29;99207.69;;;10.31;77.32
63500;BME280;49654;51.142;14.924;2023-06-14T00:59:56;99208.03;;;10.28;77.53
63500;BME280;49654;51.142;14.924;2023-06-14T01:02:24;99143.69;;;9.84;77.55
63500;BME280;49654;51.142;14.924;2023-06-14T01:04:52;99201.59;;;10.16;77.40
63500;BME280;49654;51.142;14.924;2023-06-14T01:07:25;99203.72;;;10.12;77.51
63500;BME280;49654;51.142;14.924;2023-06-14T01:10:03;99202.75;;;10.05;78.03
63500;BME280;49654;51.142;14.924;2023-06-14T01:12:37;99199.25;;;9.98;77.81
63500;BME280;49654;51.142;14.924;2023-06-14T01:15:07;99203.16;;;9.94;78.03
63500;BME280;49654;51.142;14.924;2023-06-14T01:17:36;99203.16;;;9.94;78.34
63500;BME280;49654;51.142;14.924;2023-06-14T01:20:11;99200.72;;;9.92;78.83
63500;BME280;49654;51.142;14.924;2023-06-14T01:22:50;99200.22;;;9.97;77.86
63500;BME280;49654;51.142;14.924;2023-06-14T01:25:18;99199.88;;;10.00;78.36
63500;BME280;49654;51.142;14.924;2023-06-14T01:27:47;99194.34;;;10.03;79.00
63500;BME280;49654;51.142;14.924;2023-06-14T01:30:15;99197.44;;;10.07;79.29
63500;BME280;49654;51.142;14.924;2023-06-14T01:32:43;99193.34;;;10.12;79.92
63500;BME280;49654;51.142;14.924;2023-06-14T01:35:11;99188.13;;;10.12;79.13
63500;BME280;49654;51.142;14.924;2023-06-14T01:37:39;99193.81;;;10.16;78.44
63500;BME280;49654;51.142;14.924;2023-06-14T01:40:10;99206.31;;;10.12;78.83
63500;BME280;49654;51.142;14.924;2023-06-14T01:42:38;99195.94;;;10.12;79.99
63500;BME280;49654;51.142;14.924;2023-06-14T01:45:07;99205.97;;;10.15;81.52
63500;BME280;49654;51.142;14.924;2023-06-14T01:47:34;99209.81;;;10.27;81.58
63500;BME280;49654;51.142;14.924;2023-06-14T01:50:02;99212.78;;;10.47;81.33
63500;BME280;49654;51.142;14.924;2023-06-14T01:52:29;99220.31;;;10.57;80.96
63500;BME280;49654;51.142;14.924;2023-06-14T01:54:56;99209.44;;;10.85;78.75
63500;BME280;49654;51.142;14.924;2023-06-14T01:57:25;99214.03;;;10.97;77.55
63500;BME280;49654;51.142;14.924;2023-06-14T01:59:53;99214.72;;;10.91;78.13
63500;BME280;49654;51.142;14.924;2023-06-14T02:02:20;99219.38;;;10.96;79.64
63500;BME280;49654;51.142;14.924;2023-06-14T02:04:47;99217.91;;;11.16;79.08
63500;BME280;49654;51.142;14.924;2023-06-14T02:07:14;99215.06;;;11.26;78.45
63500;BME280;49654;51.142;14.924;2023-06-14T02:09:41;99216.50;;;11.28;78.98
63500;BME280;49654;51.142;14.924;2023-06-14T02:12:08;99229.22;;;11.38;79.29
63500;BME280;49654;51.142;14.924;2023-06-14T02:14:37;99198.94;;;11.31;79.17
63500;BME280;49654;51.142;14.924;2023-06-14T02:17:05;99200.56;;;11.32;79.44
63500;BME280;49654;51.142;14.924;2023-06-14T02:19:32;99225.38;;;11.64;79.35
63500;BME280;49654;51.142;14.924;2023-06-14T02:21:59;99220.47;;;11.54;79.01
63500;BME280;49654;51.142;14.924;2023-06-14T02:24:26;99184.50;;;11.28;80.32
63500;BME280;49654;51.142;14.924;2023-06-14T02:26:53;99210.78;;;11.63;79.18
63500;BME280;49654;51.142;14.924;2023-06-14T02:29:20;99220.72;;;11.59;79.03
63500;BME280;49654;51.142;14.924;2023-06-14T02:31:48;99219.03;;;11.37;78.75
63500;BME280;49654;51.142;14.924;2023-06-14T02:34:15;99217.56;;;11.19;80.38
63500;BME280;49654;51.142;14.924;2023-06-14T02:36:43;99222.84;;;11.11;80.74
63500;BME280;49654;51.142;14.924;2023-06-14T02:39:10;99217.50;;;10.90;80.75
63500;BME280;49654;51.142;14.924;2023-06-14T02:41:38;99221.72;;;10.91;82.00
63500;BME280;49654;51.142;14.924;2023-06-14T02:44:05;99211.34;;;10.68;81.65
63500;BME280;49654;51.142;14.924;2023-06-14T02:46:32;99227.28;;;10.88;81.42
63500;BME280;49654;51.142;14.924;2023-06-14T02:49:00;99183.00;;;10.58;80.46
63500;BME280;49654;51.142;14.924;2023-06-14T02:51:27;99229.06;;;10.64;81.28
63500;BME280;49654;51.142;14.924;2023-06-14T02:53:55;99229.22;;;10.86;82.00
63500;BME280;49654;51.142;14.924;2023-06-14T02:56:22;99226.03;;;10.98;80.95
63500;BME280;49654;51.142;14.924;2023-06-14T02:58:49;99236.97;;;11.09;81.21
63500;BME280;49654;51.142;14.924;2023-06-14T03:01:16;99237.44;;;11.12;80.92
63500;BME280;49654;51.142;14.924;2023-06-14T03:03:43;99241.09;;;11.03;81.62
63500;BME280;49654;51.142;14.924;2023-06-14T03:06:12;99239.16;;;11.05;81.50
63500;BME280;49654;51.142;14.924;2023-06-14T03:08:39;99236.91;;;11.17;82.33
63500;BME280;49654;51.142;14.924;2023-06-14T03:11:07;99245.03;;;11.37;81.75
63500;BME280;49654;51.142;14.924;2023-06-14T03:13:34;99239.41;;;11.48;81.32
63500;BME280;49654;51.142;14.924;2023-06-14T03:16:01;99234.81;;;11.65;79.46
63500;BME280;49654;51.142;14.924;2023-06-14T03:18:29;99227.84;;;11.65;79.64
63500;BME280;49654;51.142;14.924;2023-06-14T03:20:56;99237.78;;;11.62;79.36
63500;BME280;49654;51.142;14.924;2023-06-14T03:23:25;99242.00;;;11.48;79.67
63500;BME280;49654;51.142;14.924;2023-06-14T03:25:52;99241.88;;;11.56;80.24
63500;BME280;49654;51.142;14.924;2023-06-14T03:28:19;99247.72;;;11.58;80.06
63500;BME280;49654;51.142;14.924;2023-06-14T03:30:46;99250.75;;;11.32;79.69
63500;BME280;49654;51.142;14.924;2023-06-14T03:33:13;99227.50;;;11.01;80.07
63500;BME280;49654;51.142;14.924;2023-06-14T03:35:41;99247.75;;;11.20;81.33
63500;BME280;49654;51.142;14.924;2023-06-14T03:38:08;99212.44;;;10.96;80.90
63500;BME280;49654;51.142;14.924;2023-06-14T03:40:36;99247.75;;;11.20;81.28
63500;BME280;49654;51.142;14.924;2023-06-14T03:43:03;99236.97;;;11.09;81.08
63500;BME280;49654;51.142;14.924;2023-06-14T03:45:30;99245.81;;;11.22;81.95
63500;BME280;49654;51.142;14.924;2023-06-14T03:47:57;99252.38;;;11.33;81.81
63500;BME280;49654;51.142;14.924;2023-06-14T03:50:24;99258.09;;;11.43;81.07
63500;BME280;49654;51.142;14.924;2023-06-14T03:52:51;99256.16;;;11.45;81.13
63500;BME280;49654;51.142;14.924;2023-06-14T03:55:18;99254.81;;;11.49;80.58
63500;BME280;49654;51.142;14.924;2023-06-14T03:57:46;99263.94;;;11.45;80.35
63500;BME280;49654;51.142;14.924;2023-06-14T04:00:13;99260.81;;;11.50;79.36
63500;BME280;49654;51.142;14.924;2023-06-14T04:02:41;99258.03;;;11.37;79.93
63500;BME280;49654;51.142;14.924;2023-06-14T04:05:10;99260.81;;;11.50;80.22
63500;BME280;49654;51.142;14.924;2023-06-14T04:07:37;99257.00;;;11.61;79.94
63500;BME280;49654;51.142;14.924;2023-06-14T04:10:06;99275.28;;;11.67;79.89
63500;BME280;49654;51.142;14.924;2023-06-14T04:12:34;99275.38;;;11.74;80.50
63500;BME280;49654;51.142;14.924;2023-06-14T04:15:02;99253.75;;;11.59;80.18
63500;BME280;49654;51.142;14.924;2023-06-14T04:17:31;99279.19;;;11.86;79.20
63500;BME280;49654;51.142;14.924;2023-06-14T04:19:59;99279.34;;;11.85;79.85
63500;BME280;49654;51.142;14.924;2023-06-14T04:22:26;99281.41;;;11.89;79.81
63500;BME280;49654;51.142;14.924;2023-06-14T04:24:54;99278.53;;;11.99;79.44
63500;BME280;49654;51.142;14.924;2023-06-14T04:27:22;99284.19;;;12.02;79.59
63500;BME280;49654;51.142;14.924;2023-06-14T04:29:51;99286.53;;;12.12;79.46
63500;BME280;49654;51.142;14.924;2023-06-14T04:32:25;99286.59;;;12.19;79.37
63500;BME280;49654;51.142;14.924;2023-06-14T04:34:53;99290.19;;;12.18;79.57
63500;BME280;49654;51.142;14.924;2023-06-14T04:37:20;99290.63;;;12.21;79.53
63500;BME280;49654;51.142;14.924;2023-06-14T04:39:47;99295.75;;;12.30;79.07
63500;BME280;49654;51.142;14.924;2023-06-14T04:42:14;99260.75;;;12.17;79.09
63500;BME280;49654;51.142;14.924;2023-06-14T04:44:42;99290.03;;;12.56;78.60
63500;BME280;49654;51.142;14.924;2023-06-14T04:47:09;99296.06;;;12.41;78.00
63500;BME280;49654;51.142;14.924;2023-06-14T04:49:39;99288.69;;;12.45;78.70
63500;BME280;49654;51.142;14.924;2023-06-14T04:52:07;99291.19;;;12.53;78.77
63500;BME280;49654;51.142;14.924;2023-06-14T04:54:36;99285.06;;;12.61;79.09
63500;BME280;49654;51.142;14.924;2023-06-14T04:57:04;99284.59;;;12.72;79.49
63500;BME280;49654;51.142;14.924;2023-06-14T04:59:31;99284.22;;;12.75;79.36
63500;BME280;49654;51.142;14.924;2023-06-14T05:01:59;99286.22;;;12.94;78.41
63500;BME280;49654;51.142;14.924;2023-06-14T05:04:26;99269.44;;;12.82;77.79
63500;BME280;49654;51.142;14.924;2023-06-14T05:06:55;99288.44;;;12.97;78.70
63500;BME280;49654;51.142;14.924;2023-06-14T05:09:22;99290.78;;;12.92;77.89
63500;BME280;49654;51.142;14.924;2023-06-14T05:11:49;99295.63;;;12.95;78.11
63500;BME280;49654;51.142;14.924;2023-06-14T05:14:16;99300.97;;;13.09;78.02
63500;BME280;49654;51.142;14.924;2023-06-14T05:16:44;99299.56;;;13.06;78.16
63500;BME280;49654;51.142;14.924;2023-06-14T05:19:10;99296.88;;;13.42;77.57
63500;BME280;49654;51.142;14.924;2023-06-14T05:21:38;99295.69;;;13.45;77.12
63500;BME280;49654;51.142;14.924;2023-06-14T05:24:06;99306.16;;;13.51;77.48
63500;BME280;49654;51.142;14.924;2023-06-14T05:26:34;99287.22;;;13.43;77.85
63500;BME280;49654;51.142;14.924;2023-06-14T05:29:01;99309.28;;;13.68;77.29
63500;BME280;49654;51.142;14.924;2023-06-14T05:31:28;99224.06;;;13.19;76.74
63500;BME280;49654;51.142;14.924;2023-06-14T05:33:55;99308.56;;;13.81;76.22
63500;BME280;49654;51.142;14.924;2023-06-14T05:36:22;99311.25;;;13.94;75.69
63500;BME280;49654;51.142;14.924;2023-06-14T05:38:49;99305.69;;;14.04;75.40
63500;BME280;49654;51.142;14.924;2023-06-14T05:41:25;99312.53;;;14.12;75.69
63500;BME280;49654;51.142;14.924;2023-06-14T05:43:53;99308.59;;;14.22;75.35
63500;BME280;49654;51.142;14.924;2023-06-14T05:46:20;99307.03;;;14.35;75.16
63500;BME280;49654;51.142;14.924;2023-06-14T05:48:50;99309.06;;;14.46;74.25
63500;BME280;49654;51.142;14.924;2023-06-14T05:51:17;99309.69;;;14.48;73.69
63500;BME280;49654;51.142;14.924;2023-06-14T05:53:45;99317.88;;;14.38;74.98
63500;BME280;49654;51.142;14.924;2023-06-14T05:56:12;99321.59;;;14.50;73.03
63500;BME280;49654;51.142;14.924;2023-06-14T05:58:40;99282.16;;;14.45;74.72
63500;BME280;49654;51.142;14.924;2023-06-14T06:01:07;99309.41;;;14.77;74.76
63500;BME280;49654;51.142;14.924;2023-06-14T06:03:34;99311.03;;;14.92;73.07
63500;BME280;49654;51.142;14.924;2023-06-14T06:06:01;99306.03;;;15.10;73.53
63500;BME280;49654;51.142;14.924;2023-06-14T06:08:29;99304.81;;;15.33;72.27
63500;BME280;49654;51.142;14.924;2023-06-14T06:10:57;99305.44;;;15.55;72.97
63500;BME280;49654;51.142;14.924;2023-06-14T06:13:24;99295.75;;;15.82;71.49
63500;BME280;49654;51.142;14.924;2023-06-14T06:15:52;99310.59;;;16.01;70.65
63500;BME280;49654;51.142;14.924;2023-06-14T06:18:19;99307.53;;;16.17;68.95
63500;BME280;49654;51.142;14.924;2023-06-14T06:20:46;99310.16;;;16.17;69.83
63500;BME280;49654;51.142;14.924;2023-06-14T06:23:14;99309.13;;;16.18;69.73
63500;BME280;49654;51.142;14.924;2023-06-14T06:25:42;99245.81;;;15.76;69.96
63500;BME280;49654;51.142;14.924;2023-06-14T06:28:09;99311.28;;;16.35;66.89
63500;BME280;49654;51.142;14.924;2023-06-14T06:30:36;99307.63;;;16.49;67.68
63500;BME280;49654;51.142;14.924;2023-06-14T06:33:04;99291.97;;;16.22;66.04
63500;BME280;49654;51.142;14.924;2023-06-14T06:35:31;99317.94;;;16.37;66.75
63500;BME280;49654;51.142;14.924;2023-06-14T06:37:59;99312.88;;;16.36;68.82
63500;BME280;49654;51.142;14.924;2023-06-14T06:40:26;99322.03;;;16.20;69.36
63500;BME280;49654;51.142;14.924;2023-06-14T06:42:53;99319.66;;;16.12;68.98
63500;BME280;49654;51.142;14.924;2023-06-14T06:45:21;99307.75;;;16.09;69.33
63500;BME280;49654;51.142;14.924;2023-06-14T06:47:49;99319.81;;;16.23;67.46
63500;BME280;49654;51.142;14.924;2023-06-14T06:50:17;99315.88;;;16.46;67.10
63500;BME280;49654;51.142;14.924;2023-06-14T06:52:44;99317.78;;;17.09;66.88
63500;BME280;49654;51.142;14.924;2023-06-14T06:55:12;99316.81;;;17.53;67.76
63500;BME280;49654;51.142;14.924;2023-06-14T06:57:39;99316.03;;;17.96;65.42
63500;BME280;49654;51.142;14.924;2023-06-14T07:00:07;99305.13;;;18.29;62.22
63500;BME280;49654;51.142;14.924;2023-06-14T07:02:35;99319.84;;;18.48;62.90
63500;BME280;49654;51.142;14.924;2023-06-14T07:05:02;99322.09;;;18.63;63.48
63500;BME280;49654;51.142;14.924;2023-06-14T07:07:30;99326.09;;;18.66;60.80
63500;BME280;49654;51.142;14.924;2023-06-14T07:09:57;99332.38;;;18.83;60.79
63500;BME280;49654;51.142;14.924;2023-06-14T07:12:24;99325.78;;;19.04;59.29
63500;BME280;49654;51.142;14.924;2023-06-14T07:14:51;99305.13;;;19.19;59.38
63500;BME280;49654;51.142;14.924;2023-06-14T07:17:18;99335.63;;;19.62;57.68
63500;BME280;49654;51.142;14.924;2023-06-14T07:19:45;99338.59;;;19.77;58.42
63500;BME280;49654;51.142;14.924;2023-06-14T07:22:12;99347.31;;;19.90;57.23
63500;BME280;49654;51.142;14.924;2023-06-14T07:24:40;99345.81;;;19.82;58.53
63500;BME280;49654;51.142;14.924;2023-06-14T07:27:07;99358.44;;;19.92;57.90
63500;BME280;49654;51.142;14.924;2023-06-14T07:29:34;99359.16;;;19.34;58.13
63500;BME280;49654;51.142;14.924;2023-06-14T07:32:01;99365.16;;;19.64;58.81
63500;BME280;49654;51.142;14.924;2023-06-14T07:34:28;99355.19;;;19.55;55.71
63500;BME280;49654;51.142;14.924;2023-06-14T07:36:55;99369.94;;;19.44;56.75
63500;BME280;49654;51.142;14.924;2023-06-14T07:39:22;99371.34;;;19.82;55.80
63500;BME280;49654;51.142;14.924;2023-06-14T07:41:50;99361.50;;;19.65;56.38
63500;BME280;49654;51.142;14.924;2023-06-14T07:44:17;99366.44;;;20.09;55.40
63500;BME280;49654;51.142;14.924;2023-06-14T07:46:44;99369.28;;;20.07;55.35
63500;BME280;49654;51.142;14.924;2023-06-14T07:49:12;99373.66;;;19.90;52.97
63500;BME280;49654;51.142;14.924;2023-06-14T07:51:38;99365.16;;;19.64;54.06
63500;BME280;49654;51.142;14.924;2023-06-14T07:54:05;99366.56;;;19.79;54.84
63500;BME280;49654;51.142;14.924;2023-06-14T07:56:34;99365.53;;;19.80;53.77
63500;BME280;49654;51.142;14.924;2023-06-14T07:59:02;99359.56;;;19.96;53.32
63500;BME280;49654;51.142;14.924;2023-06-14T08:01:29;99360.31;;;20.32;53.25
63500;BME280;49654;51.142;14.924;2023-06-14T08:03:56;99366.13;;;20.57;53.71
63500;BME280;49654;51.142;14.924;2023-06-14T08:06:23;99373.09;;;20.63;51.48
63500;BME280;49654;51.142;14.924;2023-06-14T08:08:50;99372.66;;;20.83;52.02
63500;BME280;49654;51.142;14.924;2023-06-14T08:11:17;99373.66;;;19.66;51.50
63500;BME280;49654;51.142;14.924;2023-06-14T08:13:44;99371.59;;;19.92;52.28
63500;BME280;49654;51.142;14.924;2023-06-14T08:16:12;99374.94;;;20.51;50.20
63500;BME280;49654;51.142;14.924;2023-06-14T08:18:39;99372.09;;;20.41;51.44
63500;BME280;49654;51.142;14.924;2023-06-14T08:21:06;99369.41;;;20.93;50.93
63500;BME280;49654;51.142;14.924;2023-06-14T08:23:34;99369.91;;;21.52;49.84
63500;BME280;49654;51.142;14.924;2023-06-14T08:26:01;99360.00;;;21.98;49.98
63500;BME280;49654;51.142;14.924;2023-06-14T08:28:29;99365.63;;;20.89;48.35
63500;BME280;49654;51.142;14.924;2023-06-14T08:30:56;99328.94;;;19.24;51.89
63500;BME280;49654;51.142;14.924;2023-06-14T08:33:24;99349.94;;;19.90;54.03
63500;BME280;49654;51.142;14.924;2023-06-14T08:35:51;99364.03;;;19.18;52.43
63500;BME280;49654;51.142;14.924;2023-06-14T08:38:18;99356.50;;;19.10;56.58
63500;BME280;49654;51.142;14.924;2023-06-14T08:40:48;99369.19;;;19.13;55.40
63500;BME280;49654;51.142;14.924;2023-06-14T08:43:17;99363.66;;;19.45;53.36
63500;BME280;49654;51.142;14.924;2023-06-14T08:45:46;99365.38;;;19.51;53.30
63500;BME280;49654;51.142;14.924;2023-06-14T08:48:18;99361.28;;;19.67;53.52
63500;BME280;49654;51.142;14.924;2023-06-14T08:53:18;99348.53;;;19.99;52.84
63500;BME280;49654;51.142;14.924;2023-06-14T08:55:46;99252.59;;;19.36;54.53
63500;BME280;49654;51.142;14.924;2023-06-14T08:58:14;99330.19;;;20.04;50.81
63500;BME280;49654;51.142;14.924;2023-06-14T09:00:42;99308.25;;;19.63;51.22
63500;BME280;49654;51.142;14.924;2023-06-14T09:03:10;99324.53;;;19.84;51.46
63500;BME280;49654;51.142;14.924;2023-06-14T09:05:39;99351.59;;;20.31;52.58
63500;BME280;49654;51.142;14.924;2023-06-14T09:08:06;99362.41;;;20.98;50.58
63500;BME280;49654;51.142;14.924;2023-06-14T09:10:35;99298.31;;;21.03;50.37
63500;BME280;49654;51.142;14.924;2023-06-14T09:13:03;99339.16;;;21.46;46.15
63500;BME280;49654;51.142;14.924;2023-06-14T09:15:30;99347.38;;;21.66;47.11
63500;BME280;49654;51.142;14.924;2023-06-14T09:17:58;99285.50;;;20.78;45.87
63500;BME280;49654;51.142;14.924;2023-06-14T09:20:29;99370.53;;;21.59;46.52
63500;BME280;49654;51.142;14.924;2023-06-14T09:22:56;99372.28;;;21.70;48.85
63500;BME280;49654;51.142;14.924;2023-06-14T09:25:23;99383.50;;;21.78;46.26
63500;BME280;49654;51.142;14.924;2023-06-14T09:27:52;99377.88;;;21.91;46.53
63500;BME280;49654;51.142;14.924;2023-06-14T09:30:20;99366.50;;;21.90;45.39
63500;BME280;49654;51.142;14.924;2023-06-14T09:32:47;99364.47;;;22.58;45.99
63500;BME280;49654;51.142;14.924;2023-06-14T09:35:17;99368.50;;;22.44;43.61
63500;BME280;49654;51.142;14.924;2023-06-14T09:37:44;99384.50;;;22.10;46.24
63500;BME280;49654;51.142;14.924;2023-06-14T09:40:11;99382.50;;;21.16;45.62
63500;BME280;49654;51.142;14.924;2023-06-14T09:42:38;99353.16;;;20.84;51.08
63500;BME280;49654;51.142;14.924;2023-06-14T09:45:09;99378.84;;;21.85;46.80
63500;BME280;49654;51.142;14.924;2023-06-14T09:47:38;99364.34;;;22.09;44.44
63500;BME280;49654;51.142;14.924;2023-06-14T09:50:06;99350.84;;;21.50;46.41
63500;BME280;49654;51.142;14.924;2023-06-14T09:52:33;99353.91;;;21.97;46.96
63500;BME280;49654;51.142;14.924;2023-06-14T09:55:12;99337.50;;;22.88;46.01
63500;BME280;49654;51.142;14.924;2023-06-14T09:57:41;99357.28;;;23.35;43.42
63500;BME280;49654;51.142;14.924;2023-06-14T10:00:13;99348.69;;;24.75;40.44
63500;BME280;49654;51.142;14.924;2023-06-14T10:02:42;99347.94;;;25.87;36.32
63500;BME280;49654;51.142;14.924;2023-06-14T10:05:15;99360.16;;;24.86;38.13
63500;BME280;49654;51.142;14.924;2023-06-14T10:07:48;99361.38;;;26.16;37.57
63500;BME280;49654;51.142;14.924;2023-06-14T10:10:19;99365.72;;;25.86;37.75
63500;BME280;49654;51.142;14.924;2023-06-14T10:12:46;99342.63;;;26.52;37.05
63500;BME280;49654;51.142;14.924;2023-06-14T10:15:23;99351.06;;;24.66;37.33
63500;BME280;49654;51.142;14.924;2023-06-14T10:17:59;99322.22;;;23.28;42.79
63500;BME280;49654;51.142;14.924;2023-06-14T10:20:32;99355.34;;;24.72;42.14
63500;BME280;49654;51.142;14.924;2023-06-14T10:23:03;99340.53;;;27.27;34.90
63500;BME280;49654;51.142;14.924;2023-06-14T10:25:33;99316.31;;;26.45;34.93
63500;BME280;49654;51.142;14.924;2023-06-14T10:28:14;99356.31;;;24.41;39.97
63500;BME280;49654;51.142;14.924;2023-06-14T10:31:08;99359.16;;;22.58;41.95
63500;BME280;49654;51.142;14.924;2023-06-14T10:33:36;99332.84;;;21.86;44.05
63500;BME280;49654;51.142;14.924;2023-06-14T10:36:25;99355.56;;;22.04;44.33
63500;BME280;49654;51.142;14.924;2023-06-14T10:39:06;99328.38;;;22.52;42.54
63500;BME280;49654;51.142;14.924;2023-06-14T10:41:36;99309.81;;;22.96;42.25
63500;BME280;49654;51.142;14.924;2023-06-14T10:46:58;99337.09;;;24.18;42.80
63500;BME280;49654;51.142;14.924;2023-06-14T10:49:41;99264.22;;;23.31;41.47
63500;BME280;49654;51.142;14.924;2023-06-14T10:52:09;99318.53;;;23.29;43.78
63500;BME280;49654;51.142;14.924;2023-06-14T10:55:05;99319.66;;;24.33;40.46
63500;BME280;49654;51.142;14.924;2023-06-14T10:57:35;99327.78;;;25.25;40.48
63500;BME280;49654;51.142;14.924;2023-06-14T11:00:03;99346.09;;;23.33;40.56
63500;BME280;49654;51.142;14.924;2023-06-14T11:03:16;99320.41;;;22.96;42.43
63500;BME280;49654;51.142;14.924;2023-06-14T11:05:51;99310.47;;;22.59;42.68
63500;BME280;49654;51.142;14.924;2023-06-14T11:08:27;99326.22;;;22.98;43.41
63500;BME280;49654;51.142;14.924;2023-06-14T11:10:59;99310.28;;;22.93;42.55
63500;BME280;49654;51.142;14.924;2023-06-14T11:13:26;99332.53;;;23.24;43.64
63500;BME280;49654;51.142;14.924;2023-06-14T11:15:54;99322.47;;;22.94;42.88
63500;BME280;49654;51.142;14.924;2023-06-14T11:18:24;99308.25;;;22.24;41.95
63500;BME280;49654;51.142;14.924;2023-06-14T11:20:53;99342.38;;;21.87;44.87
63500;BME280;49654;51.142;14.924;2023-06-14T11:23:21;99335.91;;;22.38;43.86
63500;BME280;49654;51.142;14.924;2023-06-14T11:25:51;99336.53;;;22.72;42.99
63500;BME280;49654;51.142;14.924;2023-06-14T11:28:18;99321.06;;;23.50;43.07
63500;BME280;49654;51.142;14.924;2023-06-14T11:30:47;99308.94;;;26.71;33.05
63500;BME280;49654;51.142;14.924;2023-06-14T11:33:16;99308.47;;;29.50;28.15
63500;BME280;49654;51.142;14.924;2023-06-14T11:35:45;99315.66;;;29.08;29.33
63500;BME280;49654;51.142;14.924;2023-06-14T11:38:12;99269.41;;;32.71;25.35
63500;BME280;49654;51.142;14.924;2023-06-14T11:40:39;99312.91;;;31.41;26.58
63500;BME280;49654;51.142;14.924;2023-06-14T11:43:06;99242.50;;;29.87;29.37
63500;BME280;49654;51.142;14.924;2023-06-14T11:45:33;99286.88;;;31.90;25.52
63500;BME280;49654;51.142;14.924;2023-06-14T11:48:01;99307.34;;;31.06;26.95
63500;BME280;49654;51.142;14.924;2023-06-14T11:50:28;99304.09;;;28.18;30.49
63500;BME280;49654;51.142;14.924;2023-06-14T11:52:57;99311.50;;;26.86;33.09
63500;BME280;49654;51.142;14.924;2023-06-14T11:55:32;99263.75;;;25.31;35.36
63500;BME280;49654;51.142;14.924;2023-06-14T11:58:02;99286.31;;;25.34;35.25
63500;BME280;49654;51.142;14.924;2023-06-14T12:00:29;99288.16;;;24.87;37.39
63500;BME280;49654;51.142;14.924;2023-06-14T12:02:56;99308.13;;;24.07;40.21
63500;BME280;49654;51.142;14.924;2023-06-14T12:05:24;99311.84;;;23.21;41.88
63500;BME280;49654;51.142;14.924;2023-06-14T12:07:59;99304.72;;;23.21;43.45
63500;BME280;49654;51.142;14.924;2023-06-14T12:10:28;99280.09;;;22.94;43.41
63500;BME280;49654;51.142;14.924;2023-06-14T12:12:59;99276.31;;;22.85;41.29
63500;BME280;49654;51.142;14.924;2023-06-14T12:15:28;99303.94;;;23.26;43.08
63500;BME280;49654;51.142;14.924;2023-06-14T12:17:57;99295.31;;;25.53;38.52
63500;BME280;49654;51.142;14.924;2023-06-14T12:20:29;99284.97;;;31.11;28.83
63500;BME280;49654;51.142;14.924;2023-06-14T12:22:59;99285.97;;;35.22;22.74
63500;BME280;49654;51.142;14.924;2023-06-14T12:25:29;99244.19;;;33.48;23.23
63500;BME280;49654;51.142;14.924;2023-06-14T12:27:57;99275.59;;;30.77;26.75
63500;BME280;49654;51.142;14.924;2023-06-14T12:30:24;99299.81;;;29.86;27.95
63500;BME280;49654;51.142;14.924;2023-06-14T12:32:51;99279.53;;;28.16;30.47
63500;BME280;49654;51.142;14.924;2023-06-14T12:35:18;99264.09;;;26.00;33.85
63500;BME280;49654;51.142;14.924;2023-06-14T12:37:45;99269.59;;;27.55;32.06
63500;BME280;49654;51.142;14.924;2023-06-14T12:40:14;99278.16;;;29.41;28.50
63500;BME280;49654;51.142;14.924;2023-06-14T12:42:41;99266.56;;;32.50;26.58
63500;BME280;49654;51.142;14.924;2023-06-14T12:45:09;99248.53;;;36.78;18.84
63500;BME280;49654;51.142;14.924;2023-06-14T12:47:36;99252.28;;;38.62;18.40
63500;BME280;49654;51.142;14.924;2023-06-14T12:50:04;99246.41;;;38.79;17.13
63500;BME280;49654;51.142;14.924;2023-06-14T12:52:31;99249.03;;;40.31;17.51
63500;BME280;49654;51.142;14.924;2023-06-14T12:55:02;99233.53;;;40.01;17.03
63500;BME280;49654;51.142;14.924;2023-06-14T12:57:31;99259.69;;;38.06;16.78
63500;BME280;49654;51.142;14.924;2023-06-14T12:59:59;99246.78;;;36.01;18.00
63500;BME280;49654;51.142;14.924;2023-06-14T13:02:26;99255.34;;;35.05;19.87